Latest Weather Observations for Keith West

IDS60801

Issued at 10:02 pm CST Sunday 19 April 2015 (issued every 30 minutes, with the page automatically refreshed every 10 minutes)

About weather observations | Map of weather stations | Latest weather observations for SA | Other Formats
Station Details ID: 025557 Name: MUNKORA Lat: -36.11 Lon: 140.33 Height: 27.0 m
Data from the previous 72 hours. | See also: Recent months for locations in South Australia
Date/Time
CST
Temp
°C
App
Temp
°C
Dew
Point
Rel
Hum
%
Delta-T
°C
Wind Press
QNH
hPa
Press
MSL
hPa
Rain
since 9 am
mm
Dir
 
Spd
km/h
Gust
km/h
Spd
kts
Gust
kts
19/10:00pm 7.4 4.0 1.7 67 2.3 SSE 9 11 5 6 1037.6 1037.6 0.0
19/09:30pm 7.7 4.3 2.0 67 2.3 SSE 9 13 5 7 1037.4 1037.4 0.0
19/09:00pm 8.2 4.5 2.2 66 2.5 SSE 11 15 6 8 1036.9 1036.8 0.0
19/08:30pm 8.9 5.1 2.0 62 2.8 SSE 11 17 6 9 1036.7 1036.6 0.0
19/08:00pm 8.7 5.2 1.4 60 3.0 SSE 9 13 5 7 1036.3 1036.2 0.0
19/07:30pm 8.3 4.3 0.8 59 3.0 S 11 13 6 7 1035.9 1035.8 0.0
19/07:00pm 9.8 5.7 -0.1 50 3.9 SSE 11 15 6 8 1035.4 1035.3 0.0
19/06:30pm 10.2 5.8 0.3 50 4.0 S 13 17 7 9 1034.8 1034.7 0.0
19/06:00pm 11.7 6.6 0.8 47 4.5 S 17 20 9 11 1034.3 1034.2 0.0
19/05:30pm 13.1 8.4 0.8 43 5.1 SSE 15 19 8 10 1033.9 1033.8 0.0
19/05:00pm 14.5 9.6 1.8 42 5.6 SSE 17 22 9 12 1033.5 1033.4 0.0
19/04:30pm 14.9 9.2 0.4 37 6.1 SSE 20 28 11 15 1033.1 1033.0 0.0
19/04:00pm 15.2 9.6 1.0 38 6.1 SSE 20 30 11 16 1032.9 1032.8 0.0
19/03:30pm 15.7 9.5 -0.1 34 6.6 SSE 22 35 12 19 1032.7 1032.6 0.0
19/03:00pm 16.0 9.4 -0.2 33 6.8 SSE 24 32 13 17 1032.7 1032.6 0.0
19/02:30pm 15.2 9.4 0.2 36 6.3 SSE 20 32 11 17 1032.5 1032.4 0.0
19/02:00pm 15.1 9.9 2.6 43 5.6 SSE 19 30 10 16 1032.5 1032.4 0.0
19/01:30pm 14.3 7.7 4.0 50 4.7 S 28 37 15 20 1032.5 1032.4 0.0
19/01:00pm 15.6 10.2 2.7 42 5.8 S 20 33 11 18 1032.4 1032.3 0.0
19/12:30pm 14.6 8.9 3.1 46 5.1 SE 22 32 12 17 1032.6 1032.5 0.0
19/12:00pm 13.9 6.4 3.7 50 4.6 S 32 43 17 23 1033.0 1032.9 0.0
19/11:30am 14.2 8.6 3.7 49 4.7 SSE 22 30 12 16 1032.9 1032.8 0.0
19/11:00am 14.4 9.0 4.7 52 4.5 SSE 22 33 12 18 1032.7 1032.6 0.0
19/10:30am 13.3 8.3 4.5 55 4.0 SSE 20 30 11 16 1032.5 1032.4 0.0
19/10:00am 12.9 7.5 4.6 57 3.8 SE 22 35 12 19 1032.3 1032.2 0.0
19/09:30am 12.3 7.7 5.7 64 3.1 SSE 19 26 10 14 1032.2 1032.1 0.0
19/09:00am 10.9 6.7 5.7 70 2.4 SSE 17 20 9 11 1032.0 1031.9 2.8
19/08:30am 9.9 5.8 6.3 78 1.7 S 17 24 9 13 1031.7 1031.6 2.8
19/08:00am 8.9 5.5 5.8 81 1.4 S 13 17 7 9 1030.9 1030.8 2.8
19/07:30am 7.3 5.0 5.0 85 1.0 S 6 11 3 6 1029.8 1029.8 2.8
19/07:00am 6.0 3.5 3.8 86 0.9 SSW 6 9 3 5 1029.0 1029.0 2.8
19/06:30am 5.8 3.1 3.8 87 0.8 SSW 7 9 4 5 1028.3 1028.3 2.8
19/06:00am 6.3 2.9 4.1 86 0.9 S 11 15 6 8 1028.0 1028.0 2.8
19/05:30am 6.5 4.0 4.5 87 0.9 SSW 7 13 4 7 1027.4 1027.4 2.8
19/05:00am 6.7 4.1 4.4 85 1.0 S 7 9 4 5 1026.7 1026.7 2.8
19/04:30am 7.7 4.4 4.8 82 1.3 SSW 11 15 6 8 1026.3 1026.3 2.8
19/04:00am 8.1 4.1 4.9 80 1.4 SSW 15 19 8 10 1025.8 1025.8 2.8
19/03:30am 7.5 4.2 4.6 82 1.3 SSW 11 15 6 8 1025.3 1025.3 2.8
19/03:00am 7.6 4.7 4.7 82 1.3 S 9 13 5 7 1025.0 1025.0 2.8
19/02:30am 8.2 4.9 4.8 79 1.5 SSW 11 15 6 8 1024.8 1024.8 2.8
19/02:00am 8.1 5.3 5.0 81 1.4 SSW 9 11 5 6 1024.7 1024.7 2.8
19/01:30am 8.4 5.7 5.5 82 1.3 S 9 11 5 6 1024.5 1024.5 2.8
19/01:00am 8.8 6.1 5.7 81 1.4 SSW 9 13 5 7 1024.2 1024.2 2.8
19/12:30am 8.7 5.7 6.0 83 1.2 SSW 11 15 6 8 1023.9 1023.9 2.8
19/12:00am 9.3 6.3 6.0 80 1.5 SSW 11 15 6 8 1023.5 1023.5 2.8
 
Date/Time
CST
Temp
°C
App
Temp
°C
Dew
Point
Rel
Hum
%
Delta-T
°C
Wind Press
QNH
hPa
Press
MSL
hPa
Rain
since 9 am
mm
Dir
 
Spd
km/h
Gust
km/h
Spd
kts
Gust
kts
18/11:30pm 9.4 6.5 6.5 82 1.3 SSW 11 17 6 9 1023.3 1023.3 2.8
18/11:00pm 9.7 7.2 6.4 80 1.5 SSW 9 11 5 6 1022.9 1022.9 2.8
18/10:30pm 10.4 7.7 7.3 81 1.5 SSW 11 13 6 7 1022.7 1022.7 2.8
18/10:00pm 9.6 7.8 7.2 85 1.1 SW 6 7 3 4 1022.4 1022.4 2.6
18/09:30pm 10.2 8.3 7.6 84 1.2 SW 7 9 4 5 1021.9 1021.9 2.6
18/09:00pm 11.2 8.7 8.2 82 1.5 SSW 11 15 6 8 1021.5 1021.5 2.6
18/08:30pm 10.6 8.8 9.5 93 0.5 SW 9 20 5 11 1021.0 1021.0 2.6
18/08:00pm 10.0 8.4 8.8 92 0.6 WNW 7 7 4 4 1020.2 1020.2 2.6
18/07:30pm 10.7 9.2 9.3 91 0.7 W 7 7 4 4 1019.9 1019.9 2.6
18/07:00pm 11.5 10.2 9.9 90 0.8 W 7 11 4 6 1019.2 1019.2 2.6
18/06:30pm 11.6 10.5 10.0 90 0.8 WSW 6 7 3 4 1018.7 1018.7 2.6
18/06:00pm 11.5 10.2 9.9 90 0.8 SW 7 9 4 5 1018.2 1018.2 2.6
18/05:30pm 11.4 9.3 9.8 90 0.8 SSW 11 15 6 8 1017.7 1017.7 2.4
18/05:00pm 11.3 7.7 9.9 91 0.7 SSW 19 30 10 16 1017.1 1017.1 2.2
18/04:30pm 11.7 5.0 9.8 88 1.0 SSW 35 46 19 25 1016.6 1016.6 1.2
18/04:13pm 12.9 7.9 10.8 87 1.1 SSW 28 52 15 28 1015.9 1015.9 1.0
18/04:00pm 13.8 9.0 11.5 86 1.2 SSW 28 35 15 19 1015.6 1015.6 1.0
18/03:30pm 14.0 8.9 11.9 87 1.1 SSW 30 39 16 21 1015.2 1015.2 0.8
18/03:00pm 14.6 8.8 12.8 89 1.0 SSW 35 46 19 25 1014.5 1014.5 0.8
18/02:52pm 15.4 8.8 12.7 84 1.5 WSW 39 59 21 32 1014.4 1014.4 0.4
18/02:47pm 17.9 11.5 12.1 69 3.2 W 37 59 20 32 1014.1 1014.1 0.0
18/02:30pm 19.8 13.8 10.8 56 4.9 W 33 46 18 25 1013.7 1013.7 0.0
18/02:00pm 20.2 13.8 10.6 54 5.2 W 35 46 19 25 1013.7 1013.7 0.0
18/01:30pm 20.8 14.5 10.9 53 5.4 W 35 46 19 25 1013.8 1013.8 0.0
18/01:00pm 19.7 14.0 11.7 60 4.4 W 33 39 18 21 1014.4 1014.4 0.0
18/12:30pm 19.5 13.8 11.0 58 4.6 W 32 43 17 23 1014.7 1014.7 0.0
18/12:00pm 19.2 13.3 11.3 60 4.3 W 33 43 18 23 1015.2 1015.2 0.0
18/11:30am 19.5 14.4 12.0 62 4.2 W 30 39 16 21 1015.6 1015.6 0.0
18/11:00am 18.0 13.1 11.3 65 3.6 WNW 28 37 15 20 1015.8 1015.8 0.0
18/10:30am 18.0 13.6 11.8 67 3.4 WNW 26 35 14 19 1015.9 1015.9 0.0
18/10:00am 17.0 12.7 12.1 73 2.7 WNW 26 33 14 18 1015.9 1015.9 0.0
18/09:30am 16.5 13.3 11.9 74 2.5 WNW 20 28 11 15 1016.1 1016.1 0.0
18/09:00am 15.6 12.5 11.6 77 2.2 WNW 19 28 10 15 1016.5 1016.5 3.4
18/08:30am 14.3 11.2 11.6 84 1.4 W 19 24 10 13 1016.5 1016.5 3.4
18/08:00am 13.1 10.7 11.5 90 0.8 WNW 15 19 8 10 1016.3 1016.3 3.4
18/07:30am 12.2 10.1 11.1 93 0.6 NW 13 17 7 9 1016.0 1016.0 3.4
18/07:00am 10.6 8.9 9.8 95 0.4 NW 9 13 5 7 1015.7 1015.7 3.4
18/06:30am 10.7 8.6 9.9 95 0.4 NW 11 13 6 7 1015.3 1015.3 3.4
18/06:00am 10.2 8.4 9.3 94 0.4 NW 9 11 5 6 1015.2 1015.2 3.4
18/05:30am 11.1 9.5 10.2 94 0.5 NW 9 11 5 6 1015.0 1015.0 3.4
18/05:00am 11.6 10.5 10.8 95 0.4 NNW 7 9 4 5 1015.0 1015.0 3.4
18/04:30am 11.4 10.3 10.5 94 0.5 NW 7 9 4 5 1014.8 1014.8 3.4
18/04:00am 11.9 10.9 11.0 94 0.5 N 7 9 4 5 1014.7 1014.7 3.4
18/03:30am 11.7 10.8 10.8 94 0.5 NW 6 7 3 4 1014.6 1014.6 3.4
18/03:00am 12.1 11.3 11.2 94 0.5 NW 6 7 3 4 1014.7 1014.7 3.4
18/02:30am 11.8 10.9 10.7 93 0.6 W 6 7 3 4 1014.9 1014.9 3.4
18/02:00am 12.4 11.7 11.3 93 0.6 W 6 7 3 4 1015.1 1015.1 3.4
18/01:30am 12.5 11.9 11.6 94 0.5 WSW 6 7 3 4 1015.5 1015.5 3.4
18/01:00am 12.5 11.8 11.4 93 0.6 SW 6 7 3 4 1015.6 1015.6 3.4
18/12:30am 12.6 12.0 11.7 94 0.5 SW 6 7 3 4 1015.7 1015.7 3.4
18/12:00am 12.6 11.7 11.5 93 0.6 SW 7 9 4 5 1015.8 1015.8 3.4
 
Date/Time
CST
Temp
°C
App
Temp
°C
Dew
Point
Rel
Hum
%
Delta-T
°C
Wind Press
QNH
hPa
Press
MSL
hPa
Rain
since 9 am
mm
Dir
 
Spd
km/h
Gust
km/h
Spd
kts
Gust
kts
17/11:30pm 12.6 11.9 11.5 93 0.6 SSW 6 9 3 5 1016.0 1016.0 3.4
17/11:00pm 12.6 11.4 11.5 93 0.6 SSW 9 11 5 6 1016.1 1016.1 3.4
17/10:30pm 12.6 11.4 11.5 93 0.6 S 9 13 5 7 1016.3 1016.3 3.2
17/10:00pm 12.8 11.7 11.9 94 0.5 SSW 9 15 5 8 1016.2 1016.2 3.2
17/09:30pm 13.0 12.5 12.1 94 0.5 SSW 6 9 3 5 1016.4 1016.4 3.2
17/09:00pm 13.0 12.3 12.1 94 0.5 SSW 7 11 4 6 1016.5 1016.5 3.2
17/08:30pm 13.0 12.3 12.1 94 0.5 SSW 7 9 4 5 1016.5 1016.5 3.2
17/08:00pm 13.0 12.9 12.1 94 0.5 S 4 6 2 3 1016.2 1016.2 3.2
17/07:30pm 12.9 12.7 11.8 93 0.6 ESE 4 4 2 2 1016.0 1016.0 3.2
17/07:00pm 12.8 13.0 11.9 94 0.5 E 2 4 1 2 1016.1 1016.1 3.0
17/06:30pm 12.8 12.3 11.9 94 0.5 E 6 7 3 4 1015.8 1015.8 3.0
17/06:00pm 12.8 11.6 11.7 93 0.6 E 9 11 5 6 1015.8 1015.8 2.8
17/05:30pm 12.9 12.3 11.8 93 0.6 E 6 6 3 3 1016.1 1016.1 1.8
17/05:00pm 12.8 12.2 11.7 93 0.6 SE 6 7 3 4 1016.1 1016.1 1.2
17/04:30pm 12.9 12.3 11.8 93 0.6 ESE 6 9 3 5 1016.1 1016.1 1.0
17/04:00pm 12.9 12.3 11.6 92 0.7 SE 6 7 3 4 1016.2 1016.2 0.8
17/03:30pm 12.9 12.3 11.6 92 0.7 ESE 6 7 3 4 1016.7 1016.7 0.4
17/03:00pm 12.8 11.5 11.2 90 0.8 E 9 13 5 7 1016.9 1016.9 0.2
17/02:30pm 13.2 11.3 10.6 84 1.4 E 11 15 6 8 1017.1 1017.1 0.0
17/02:00pm 13.4 10.7 10.4 82 1.6 E 15 19 8 10 1017.3 1017.3 0.0
17/01:30pm 13.7 10.5 10.1 79 1.9 E 17 24 9 13 1017.6 1017.6 0.0
17/01:00pm 13.7 11.2 10.9 83 1.5 ESE 15 22 8 12 1018.1 1018.1 0.0
17/12:30pm 13.2 11.5 11.1 87 1.1 E 11 15 6 8 1019.1 1019.1 0.0
17/12:00pm 13.4 11.5 10.6 83 1.5 ENE 11 15 6 8 1020.0 1020.0 0.0
17/11:30am 13.5 11.8 9.7 78 1.9 ENE 9 13 5 7 1020.6 1020.6 0.0
17/11:00am 13.1 11.3 9.5 79 1.8 ENE 9 11 5 6 1020.9 1020.9 0.0
17/10:30am 12.9 11.5 9.4 79 1.8 ENE 7 11 4 6 1021.3 1021.3 0.0
17/10:00am 12.6 10.7 9.2 80 1.7 ESE 9 11 5 6 1021.6 1021.6 0.0
17/09:30am 12.4 10.2 9.2 81 1.6 ESE 11 13 6 7 1022.0 1022.0 0.0
17/09:00am 12.2 10.4 9.4 83 1.4 ESE 9 11 5 6 1021.8 1021.8 0.4
17/08:30am 12.0 11.0 9.0 82 1.5 E 4 9 2 5 1021.9 1021.9 0.4
17/08:00am 11.7 9.4 8.9 83 1.4 ESE 11 13 6 7 1021.3 1021.3 0.4
17/07:30am 11.4 9.5 9.0 85 1.2 ESE 9 11 5 6 1021.6 1021.6 0.4
17/07:00am 11.5 9.5 8.7 83 1.4 ENE 9 11 5 6 1021.6 1021.6 0.4
17/06:30am 11.3 9.7 8.9 85 1.2 E 7 7 4 4 1022.2 1022.2 0.4
17/06:00am 11.4 10.4 8.8 84 1.3 SE 4 4 2 2 1022.6 1022.6 0.4
17/05:30am 11.5 10.0 8.4 81 1.5 SE 6 7 3 4 1022.7 1022.7 0.4
17/05:00am 11.7 10.1 8.6 81 1.5 S 7 9 4 5 1022.7 1022.7 0.4
17/04:30am 12.2 9.8 8.7 79 1.7 S 11 15 6 8 1022.3 1022.3 0.0
17/04:00am 12.3 10.3 8.6 78 1.8 N 9 11 5 6 1021.5 1021.5 0.0
17/03:30am 12.6 11.4 8.1 74 2.2 NNE 4 7 2 4 1021.6 1021.6 0.0
17/03:00am 12.7 10.9 7.8 72 2.4 NE 7 9 4 5 1021.8 1021.8 0.0
17/02:30am 12.4 10.8 7.9 74 2.2 E 6 6 3 3 1022.4 1022.4 0.0
17/02:00am 12.5 10.9 7.8 73 2.3 SE 6 7 3 4 1023.0 1023.0 0.0
17/01:30am 12.6 10.7 7.7 72 2.4 SE 7 9 4 5 1023.3 1023.3 0.0
17/01:00am 12.7 10.9 7.8 72 2.4 SE 7 9 4 5 1023.2 1023.2 0.0
17/12:30am 12.7 11.1 8.0 73 2.3 SE 6 6 3 3 1023.3 1023.3 0.0
17/12:00am 12.6 11.0 8.1 74 2.2 ESE 6 6 3 3 1023.8 1023.8 0.0
 
Date/Time
CST
Temp
°C
App
Temp
°C
Dew
Point
Rel
Hum
%
Delta-T
°C
Wind Press
QNH
hPa
Press
MSL
hPa
Rain
since 9 am
mm
Dir
 
Spd
km/h
Gust
km/h
Spd
kts
Gust
kts
16/11:30pm 12.8 11.6 7.9 72 2.4 SE 4 6 2 3 1024.5 1024.5 0.0
16/11:00pm 13.3 11.4 7.7 69 2.8 SE 7 9 4 5 1025.0 1025.0 0.0
16/10:30pm 13.5 11.6 7.7 68 2.8 SE 7 11 4 6 1025.5 1025.5 0.0

Other Formats:

Comma delimited format used in spreadsheet applications
http://www.bom.gov.au/fwo/IDS60801/IDS60801.95815.axf

JavaScript Object Notation format (JSON) in row-major order
http://www.bom.gov.au/fwo/IDS60801/IDS60801.95815.json